Time;durP1;ratioP1;P1;durP2;ratioP2;P2;SDS_P1;SDS_P2;PMS_P1;PMS_P2;Temp;Humidity;BMP_temperature;BMP_pressure;BME280_temperature;BME280_humidity;BME280_pressure;Samples;Min_cycle;Max_cycle;Signal;HPM_P1;HPM_P2
2022/02/20 00:01:13;;;;;;;9.60;3.80;;;;;;;3.05;61.63;99670.27;107616;1273;96215;-75
2022/02/20 00:03:45;;;;;;;7.80;3.50;;;;;;;3.05;61.75;99670.61;107610;1274;95889;-75
2022/02/20 00:06:20;;;;;;;11.30;3.60;;;;;;;3.04;61.64;99668.73;107667;1274;112509;-75
2022/02/20 00:08:52;;;;;;;10.10;3.70;;;;;;;3.03;61.43;99671.31;107413;1276;107955;-75
2022/02/20 00:11:24;;;;;;;11.90;4.00;;;;;;;3.00;61.50;99666.88;106026;1276;108804;-75
2022/02/20 00:13:58;;;;;;;12.60;4.00;;;;;;;2.99;61.59;99666.20;106138;1274;97816;-75
2022/02/20 00:16:31;;;;;;;9.50;3.90;;;;;;;2.96;61.48;99666.59;107654;1274;96165;-75
2022/02/20 00:19:09;;;;;;;12.20;4.00;;;;;;;2.93;61.38;99667.15;107485;1275;111576;-74
2022/02/20 00:21:41;;;;;;;11.20;4.00;;;;;;;2.91;61.48;99672.31;106135;1274;107926;-75
2022/02/20 00:24:13;;;;;;;13.80;4.10;;;;;;;2.89;61.46;99675.42;107537;1276;108850;-75
2022/02/20 00:26:44;;;;;;;10.80;3.90;;;;;;;2.86;61.51;99669.44;107582;1274;96091;-75
2022/02/20 00:29:16;;;;;;;8.30;3.80;;;;;;;2.85;61.51;99667.05;107646;1274;96227;-75
2022/02/20 00:31:48;;;;;;;10.60;3.90;;;;;;;2.82;61.51;99665.17;107629;1274;111094;-75
2022/02/20 00:34:20;;;;;;;9.80;4.10;;;;;;;2.81;61.44;99659.54;107674;1274;107818;-75
2022/02/20 00:36:52;;;;;;;12.20;3.90;;;;;;;2.79;61.41;99654.59;107583;1274;108071;-75
2022/02/20 00:39:31;;;;;;;10.80;3.90;;;;;;;2.76;61.50;99649.63;106317;1274;98166;-74
2022/02/20 00:42:05;;;;;;;12.80;4.20;;;;;;;2.74;61.51;99649.31;106084;1274;98034;-74
2022/02/20 00:44:43;;;;;;;10.20;3.60;;;;;;;2.72;61.38;99647.27;107562;1274;110402;-74
2022/02/20 00:47:15;;;;;;;9.80;3.10;;;;;;;2.71;61.29;99647.46;106819;1274;108653;-73
2022/02/20 00:49:47;;;;;;;10.40;3.30;;;;;;;2.70;61.43;99647.48;106142;1274;107787;-74
2022/02/20 00:52:19;;;;;;;9.80;3.50;;;;;;;2.68;61.31;99647.98;106077;1274;97833;-74
2022/02/20 00:54:50;;;;;;;13.60;3.70;;;;;;;2.67;61.38;99645.25;106106;1275;97903;-74
2022/02/20 00:57:22;;;;;;;9.90;3.50;;;;;;;2.66;61.39;99643.71;106102;1274;114489;-74
2022/02/20 00:59:54;;;;;;;11.10;3.90;;;;;;;2.63;61.48;99639.63;106147;1274;109028;-74
2022/02/20 01:02:27;;;;;;;10.90;3.30;;;;;;;2.62;61.31;99635.19;105933;1276;108512;-74
2022/02/20 01:04:59;;;;;;;12.90;3.80;;;;;;;2.59;61.44;99636.76;106112;1274;97880;-73
2022/02/20 01:07:32;;;;;;;12.00;3.90;;;;;;;2.56;61.36;99643.99;107649;1273;96119;-75
2022/02/20 01:10:06;;;;;;;12.70;3.70;;;;;;;2.55;61.48;99650.36;106192;1273;112614;-74
2022/02/20 01:12:39;;;;;;;10.90;3.70;;;;;;;2.53;61.37;99646.61;107626;1274;107590;-75
2022/02/20 01:15:13;;;;;;;10.80;3.60;;;;;;;2.52;61.32;99646.96;107649;1274;107800;-76
2022/02/20 01:17:45;;;;;;;8.50;3.70;;;;;;;2.52;61.11;99649.01;107646;1274;96126;-74
2022/02/20 01:20:17;;;;;;;8.40;3.20;;;;;;;2.50;61.11;99649.00;107663;1274;96051;-74
2022/02/20 01:22:49;;;;;;;11.70;3.70;;;;;;;2.50;60.91;99653.48;107653;1274;112557;-74
2022/02/20 01:25:22;;;;;;;12.50;3.60;;;;;;;2.48;61.15;99646.29;107549;1276;109030;-74
2022/02/20 01:27:54;;;;;;;10.70;3.90;;;;;;;2.46;60.89;99641.52;107568;1274;108766;-74
2022/02/20 01:30:26;;;;;;;12.20;3.90;;;;;;;2.44;60.86;99635.35;107596;1276;96131;-75
2022/02/20 01:32:58;;;;;;;10.10;3.90;;;;;;;2.43;60.84;99631.41;107658;1274;96109;-74
2022/02/20 01:35:30;;;;;;;12.70;3.80;;;;;;;2.41;60.75;99632.98;107682;1274;112029;-74
2022/02/20 01:38:02;;;;;;;9.90;3.60;;;;;;;2.39;60.52;99631.79;107661;1274;106491;-74
2022/02/20 01:40:34;;;;;;;11.10;4.00;;;;;;;2.38;60.45;99631.98;107007;1274;106763;-74
2022/02/20 01:43:12;;;;;;;12.50;4.20;;;;;;;2.36;60.42;99622.90;106193;1276;97980;-74
2022/02/20 01:45:44;;;;;;;9.70;3.60;;;;;;;2.34;60.35;99619.14;107626;1274;95957;-74
2022/02/20 01:48:19;;;;;;;13.10;5.10;;;;;;;2.33;60.28;99618.46;107313;1274;112084;-75
2022/02/20 01:50:51;;;;;;;16.90;5.60;;;;;;;2.31;60.15;99619.15;106172;1276;108482;-74
2022/02/20 01:53:23;;;;;;;16.50;5.50;;;;;;;2.31;60.14;99615.72;106045;1274;108458;-75
2022/02/20 01:55:56;;;;;;;18.80;6.10;;;;;;;2.30;60.14;99606.30;106083;1274;97810;-75
2022/02/20 01:58:41;;;;;;;17.70;6.80;;;;;;;2.28;60.10;99605.63;106082;1274;97939;-75
2022/02/20 02:01:31;;;;;;;13.50;5.60;;;;;;;2.26;60.14;99600.16;106145;1275;112394;-75
2022/02/20 02:04:12;;;;;;;18.30;6.00;;;;;;;2.25;60.15;99594.86;106173;1274;107195;-75
2022/02/20 02:06:52;;;;;;;19.60;6.10;;;;;;;2.24;60.13;99591.45;106091;1274;108379;-74
2022/02/20 02:09:38;;;;;;;14.80;5.40;;;;;;;2.22;60.07;99587.02;105909;1276;97856;-74
2022/02/20 02:12:19;;;;;;;19.50;5.80;;;;;;;2.20;59.96;99585.48;105998;1275;97957;-75
2022/02/20 02:15:29;;;;;;;18.20;4.90;;;;;;;2.19;59.91;99581.73;105942;1274;111338;-74
2022/02/20 02:18:30;;;;;;;19.40;5.80;;;;;;;2.17;59.87;99578.66;105727;1276;110259;-75
2022/02/20 02:21:21;;;;;;;17.10;5.00;;;;;;;2.18;59.84;99572.12;107636;1274;107038;-75
2022/02/20 02:24:04;;;;;;;13.50;4.80;;;;;;;2.19;59.76;99563.55;107580;1276;97194;-76
2022/02/20 02:27:06;;;;;;;11.50;3.70;;;;;;;2.21;59.51;99556.14;106978;1274;96189;-74
2022/02/20 02:30:02;;;;;;;12.50;4.00;;;;;;;2.25;59.57;99555.23;107592;1274;111773;-75
2022/02/20 02:32:34;;;;;;;10.10;3.80;;;;;;;2.27;59.35;99552.13;107543;1274;108585;-74
2022/02/20 02:35:07;;;;;;;8.80;3.80;;;;;;;2.30;59.46;99542.66;107300;1274;148558;-74
2022/02/20 02:37:40;;;;;;;8.70;3.50;;;;;;;2.32;59.32;99537.83;106692;1275;97933;-74
2022/02/20 02:40:13;;;;;;;8.60;3.30;;;;;;;2.35;59.11;99535.59;105820;1276;97778;-74
2022/02/20 02:42:46;;;;;;;11.30;3.60;;;;;;;2.37;59.13;99526.65;107490;1274;110152;-74
2022/02/20 02:45:18;;;;;;;11.70;4.00;;;;;;;2.35;58.98;99521.52;107532;1274;107886;-74
2022/02/20 02:47:50;;;;;;;13.80;3.90;;;;;;;2.35;58.99;99517.41;107513;1274;108607;-75
2022/02/20 02:50:22;;;;;;;11.60;3.90;;;;;;;2.35;59.03;99518.27;107660;1274;96049;-74
2022/02/20 02:52:56;;;;;;;11.70;4.30;;;;;;;2.33;59.11;99519.64;107541;1274;96413;-74
2022/02/20 02:55:29;;;;;;;9.30;4.10;;;;;;;2.33;59.05;99521.70;107674;1274;109380;-75
2022/02/20 02:58:01;;;;;;;9.60;3.80;;;;;;;2.32;59.01;99515.02;107528;1276;109061;-74
2022/02/20 03:00:35;;;;;;;12.20;3.80;;;;;;;2.32;59.08;99514.67;107447;1273;109188;-75
2022/02/20 03:03:33;;;;;;;12.90;4.00;;;;;;;2.30;58.90;99513.66;105792;1263;97864;-74
2022/02/20 03:06:10;;;;;;;12.20;4.10;;;;;;;2.27;58.92;99516.45;106031;1276;97857;-73
2022/02/20 03:08:43;;;;;;;12.80;4.20;;;;;;;2.23;59.05;99513.91;107503;1276;112428;-74
2022/02/20 03:11:15;;;;;;;12.10;3.80;;;;;;;2.20;58.99;99511.23;107471;1275;108257;-73
2022/02/20 03:13:49;;;;;;;10.70;4.00;;;;;;;2.17;58.97;99511.77;107074;1275;107885;-74
2022/02/20 03:16:25;;;;;;;12.60;3.90;;;;;;;2.13;58.99;99512.45;106247;1276;97887;-74
2022/02/20 03:18:58;;;;;;;12.80;4.00;;;;;;;2.12;59.02;99509.73;106065;1274;97844;-74
2022/02/20 03:21:30;;;;;;;12.10;3.90;;;;;;;2.11;58.95;99505.45;106083;1274;112565;-74
2022/02/20 03:24:02;;;;;;;8.80;4.00;;;;;;;2.09;59.02;99503.08;106122;1275;108912;-73
2022/02/20 03:26:34;;;;;;;11.10;4.00;;;;;;;2.07;59.08;99499.15;106128;1275;108458;-74
2022/02/20 03:29:06;;;;;;;9.20;3.60;;;;;;;2.06;59.11;99499.69;105938;1276;97914;-73
2022/02/20 03:31:39;;;;;;;11.80;3.80;;;;;;;2.04;59.05;99490.45;106029;1276;97894;-74
2022/02/20 03:34:11;;;;;;;11.20;3.80;;;;;;;2.03;59.07;99486.00;106147;1276;111338;-75
2022/02/20 03:36:44;;;;;;;7.30;3.70;;;;;;;2.02;59.09;99484.65;105989;1276;107957;-74
2022/02/20 03:39:22;;;;;;;14.40;3.80;;;;;;;2.01;59.11;99481.23;105986;1276;108912;-73
2022/02/20 03:41:54;;;;;;;8.80;3.90;;;;;;;2.00;59.08;99471.80;106162;1276;97848;-74
2022/02/20 03:45:05;;;;;;;14.60;3.90;;;;;;;1.98;59.08;99457.94;107143;1279;96305;-74
2022/02/20 03:47:40;;;;;;;11.80;4.20;;;;;;;1.97;59.21;99455.36;107113;1281;111387;-73
2022/02/20 03:50:13;;;;;;;10.90;3.60;;;;;;;1.95;59.17;99457.27;107426;1275;107687;-74
2022/02/20 03:52:49;;;;;;;9.90;4.00;;;;;;;1.93;59.11;99456.60;107538;1276;108947;-73
2022/02/20 03:55:27;;;;;;;12.10;4.50;;;;;;;1.93;59.02;99452.66;106455;1275;97844;-73
2022/02/20 03:58:00;;;;;;;12.30;4.10;;;;;;;1.93;59.16;99452.66;106045;1276;97836;-75
2022/02/20 04:00:53;;;;;;;11.60;3.90;;;;;;;1.92;59.09;99445.81;105977;1276;111364;-74
2022/02/20 04:03:28;;;;;;;13.10;4.50;;;;;;;1.92;59.12;99443.06;105988;1276;108645;-74
2022/02/20 04:06:00;;;;;;;9.90;3.70;;;;;;;1.91;59.17;99441.36;105861;1276;108995;-74
2022/02/20 04:08:33;;;;;;;16.60;5.50;;;;;;;1.91;59.23;99441.89;105983;1276;97871;-75
2022/02/20 04:11:07;;;;;;;14.50;4.60;;;;;;;1.89;59.11;99433.67;106059;1276;97822;-74
2022/02/20 04:13:44;;;;;;;11.10;4.40;;;;;;;1.88;59.18;99428.89;106006;1276;111487;-73
2022/02/20 04:16:19;;;;;;;9.50;4.10;;;;;;;1.84;59.31;99434.27;105865;1276;108977;-73
2022/02/20 04:18:57;;;;;;;10.90;4.20;;;;;;;1.80;59.33;99428.46;106077;1276;108875;-73
2022/02/20 04:21:30;;;;;;;11.30;4.70;;;;;;;1.78;59.34;99425.38;106030;1276;97983;-74
2022/02/20 04:24:08;;;;;;;11.50;3.90;;;;;;;1.76;59.31;99418.72;106156;1276;97843;-73
2022/02/20 04:26:40;;;;;;;14.30;4.20;;;;;;;1.74;59.42;99410.52;106158;1276;112256;-73
2022/02/20 04:29:18;;;;;;;12.80;4.70;;;;;;;1.72;59.53;99405.05;106030;1276;109152;-74
2022/02/20 04:31:51;;;;;;;11.30;4.30;;;;;;;1.72;59.48;99404.71;105785;1276;108862;-73
2022/02/20 04:34:23;;;;;;;10.70;4.40;;;;;;;1.72;59.59;99397.67;107496;1276;96205;-73
2022/02/20 04:36:56;;;;;;;12.60;4.60;;;;;;;1.72;59.57;99396.82;107518;1275;96083;-74
2022/02/20 04:39:28;;;;;;;9.60;3.80;;;;;;;1.73;59.46;99387.39;107432;1276;112748;-74
2022/02/20 04:42:01;;;;;;;10.70;4.40;;;;;;;1.73;59.41;99380.35;107441;1276;109179;-73
2022/02/20 04:44:47;;;;;;;14.50;4.10;;;;;;;1.75;59.26;99377.42;107414;1276;108826;-74
2022/02/20 04:47:25;;;;;;;9.90;4.30;;;;;;;1.76;59.26;99381.35;107479;1276;96184;-74
2022/02/20 04:49:57;;;;;;;12.20;4.50;;;;;;;1.78;59.16;99376.52;107469;1276;96160;-74
2022/02/20 04:52:47;;;;;;;14.30;4.30;;;;;;;1.81;59.23;99370.52;107455;1276;112582;-73
2022/02/20 04:55:26;;;;;;;9.00;4.50;;;;;;;1.84;59.01;99365.70;106489;1275;107805;-73
2022/02/20 04:57:58;;;;;;;12.70;4.10;;;;;;;1.86;59.04;99360.02;105796;1276;109010;-73
2022/02/20 05:00:31;;;;;;;12.70;4.40;;;;;;;1.88;58.98;99363.92;106042;1276;97897;-74
2022/02/20 05:03:04;;;;;;;12.20;4.70;;;;;;;1.90;58.77;99362.36;107123;1276;95770;-74
2022/02/20 05:06:06;;;;;;;11.60;4.30;;;;;;;1.90;58.83;99360.64;107432;1276;111361;-75
2022/02/20 05:08:54;;;;;;;9.80;4.10;;;;;;;1.90;58.79;99360.98;107435;1276;109087;-75
2022/02/20 05:11:32;;;;;;;10.90;4.30;;;;;;;1.92;58.61;99352.39;107500;1276;109118;-75
2022/02/20 05:14:06;;;;;;;10.70;4.90;;;;;;;1.94;58.60;99348.24;107400;1276;96455;-75
2022/02/20 05:16:39;;;;;;;10.90;4.20;;;;;;;1.97;58.67;99343.76;107426;1276;96015;-74
2022/02/20 05:19:14;;;;;;;10.10;4.30;;;;;;;2.00;58.41;99341.84;107453;1275;111254;-75
2022/02/20 05:21:52;;;;;;;12.70;5.00;;;;;;;2.04;58.18;99344.70;107508;1275;107783;-76
2022/02/20 05:24:25;;;;;;;11.10;4.60;;;;;;;2.07;58.17;99332.48;106699;1276;108362;-74
2022/02/20 05:26:57;;;;;;;13.20;4.80;;;;;;;2.10;58.13;99340.00;105770;1276;98439;-74
2022/02/20 05:29:34;;;;;;;11.30;4.90;;;;;;;2.13;57.90;99335.15;105890;1276;97897;-72
2022/02/20 05:32:08;;;;;;;11.90;4.40;;;;;;;2.15;57.70;99334.79;106062;1276;112401;-74
2022/02/20 05:34:56;;;;;;;10.50;4.50;;;;;;;2.17;57.75;99335.30;105938;1276;107780;-75
2022/02/20 05:37:39;;;;;;;12.00;4.30;;;;;;;2.20;57.83;99333.54;105842;1276;108871;-75
2022/02/20 05:40:15;;;;;;;17.30;4.70;;;;;;;2.22;57.81;99330.08;106042;1276;98046;-74
2022/02/20 05:42:57;;;;;;;12.40;4.90;;;;;;;2.22;57.74;99329.39;106058;1276;97973;-73
2022/02/20 05:45:32;;;;;;;12.70;4.60;;;;;;;2.24;57.66;99331.42;107542;1276;110348;-74
2022/02/20 05:48:12;;;;;;;11.30;4.60;;;;;;;2.26;57.53;99336.37;106484;1276;108836;-74
2022/02/20 05:51:10;;;;;;;12.30;5.10;;;;;;;2.24;57.52;99320.61;105958;1276;107867;-73
2022/02/20 05:53:49;;;;;;;13.10;4.70;;;;;;;2.25;57.40;99326.24;105805;1276;97854;-75
2022/02/20 05:56:22;;;;;;;12.10;4.70;;;;;;;2.27;57.61;99325.89;106004;1276;97824;-73
2022/02/20 05:59:00;;;;;;;13.10;4.80;;;;;;;2.27;57.49;99325.71;105866;1276;111886;-75
2022/02/20 06:01:33;;;;;;;13.00;4.80;;;;;;;2.27;57.44;99324.69;106011;1276;108110;-74
2022/02/20 06:04:08;;;;;;;14.80;4.80;;;;;;;2.26;57.33;99323.32;105971;1276;109372;-74
2022/02/20 06:06:40;;;;;;;11.70;5.10;;;;;;;2.25;57.35;99320.24;105999;1276;97865;-75
2022/02/20 06:09:39;;;;;;;15.90;4.60;;;;;;;2.25;57.40;99321.45;105762;1276;97845;-75
2022/02/20 06:12:32;;;;;;;15.30;5.40;;;;;;;2.25;57.48;99316.84;105891;1276;111440;-75
2022/02/20 06:15:17;;;;;;;12.50;5.00;;;;;;;2.25;57.28;99314.77;105803;1276;108060;-75
2022/02/20 06:18:04;;;;;;;14.80;5.10;;;;;;;2.25;57.27;99313.56;105824;1276;108773;-74
2022/02/20 06:20:46;;;;;;;13.00;5.20;;;;;;;2.28;57.43;99309.58;105885;1276;97889;-75
2022/02/20 06:23:34;;;;;;;15.40;5.50;;;;;;;2.31;57.51;99312.63;105879;1276;97746;-75
2022/02/20 06:26:31;;;;;;;;;;;;;;;2.34;57.52;99314.13;105790;1276;111387;-75
2022/02/20 06:29:03;;;;;;;15.80;5.50;;;;;;;2.38;57.56;99314.26;105974;1276;108918;-75
2022/02/20 06:31:35;;;;;;;12.00;5.50;;;;;;;2.44;57.50;99315.19;105830;1274;108114;-75
2022/02/20 06:34:07;;;;;;;12.20;5.60;;;;;;;2.48;57.62;99306.20;105826;1276;97900;-73
2022/02/20 06:36:42;;;;;;;12.70;5.30;;;;;;;2.50;57.50;99301.89;105924;1276;97832;-76
2022/02/20 06:39:14;;;;;;;13.90;5.60;;;;;;;2.51;57.48;99305.48;105791;1276;112506;-74
2022/02/20 06:41:46;;;;;;;15.20;5.40;;;;;;;2.53;57.50;99298.61;105883;1276;108921;-74
2022/02/20 06:44:19;;;;;;;15.20;5.50;;;;;;;2.54;57.52;99295.67;105860;1276;108099;-75
2022/02/20 06:47:17;;;;;;;13.20;5.50;;;;;;;2.57;57.57;99291.84;105724;1276;97943;-74
2022/02/20 06:50:09;;;;;;;11.90;5.10;;;;;;;2.63;57.58;99287.63;106081;1276;97929;-74
2022/02/20 06:52:52;;;;;;;13.70;5.20;;;;;;;2.68;57.47;99280.85;105847;1276;111496;-75
2022/02/20 06:55:37;;;;;;;13.30;5.50;;;;;;;2.72;57.41;99273.41;106084;1276;110149;-74
2022/02/20 06:58:11;;;;;;;;;;;;;;;2.77;57.62;99268.70;105978;1276;109370;-74
2022/02/20 07:00:44;;;;;;;13.50;5.00;;;;;;;2.81;57.52;99266.39;105994;1276;97861;-74
2022/02/20 07:03:16;;;;;;;14.20;5.00;;;;;;;2.83;57.52;99268.93;106099;1276;97970;-74
2022/02/20 07:05:48;;;;;;;10.80;5.00;;;;;;;2.84;57.49;99264.10;106186;1276;111407;-74
2022/02/20 07:08:20;;;;;;;13.30;5.10;;;;;;;2.84;57.58;99265.47;106141;1276;108865;-75
2022/02/20 07:10:52;;;;;;;15.10;5.50;;;;;;;2.85;57.43;99265.11;106128;1276;107402;-74
2022/02/20 07:13:24;;;;;;;11.70;5.50;;;;;;;2.84;57.38;99264.44;106059;1276;97945;-73
2022/02/20 07:15:56;;;;;;;15.40;5.60;;;;;;;2.88;57.50;99268.70;106117;1276;97694;-74
2022/02/20 07:18:28;;;;;;;16.10;5.20;;;;;;;2.91;57.23;99272.59;106073;1276;111692;-74
2022/02/20 07:21:00;;;;;;;15.40;5.30;;;;;;;2.94;57.12;99273.23;106155;1276;108597;-73
2022/02/20 07:23:32;;;;;;;14.10;6.10;;;;;;;2.96;57.21;99273.18;106113;1276;108790;-74
2022/02/20 07:26:04;;;;;;;15.10;5.60;;;;;;;2.98;56.90;99275.20;106083;1276;97887;-73
2022/02/20 07:28:36;;;;;;;18.40;6.20;;;;;;;3.03;56.92;99276.48;106105;1276;97829;-74
2022/02/20 07:31:08;;;;;;;13.20;6.00;;;;;;;3.08;56.78;99274.89;106151;1276;112620;-74
2022/02/20 07:33:42;;;;;;;17.30;6.20;;;;;;;3.16;56.66;99274.04;105991;1276;108204;-74
2022/02/20 07:36:14;;;;;;;16.20;6.10;;;;;;;3.21;56.51;99272.56;106140;1276;107517;-74
2022/02/20 07:38:47;;;;;;;16.60;6.30;;;;;;;3.27;56.39;99273.17;106123;1276;97831;-74
2022/02/20 07:41:19;;;;;;;14.30;6.40;;;;;;;3.34;56.56;99269.59;106167;1276;97915;-74
2022/02/20 07:43:51;;;;;;;16.50;7.10;;;;;;;3.44;56.16;99266.66;106130;1276;111942;-74
2022/02/20 07:46:23;;;;;;;20.90;7.00;;;;;;;3.50;55.76;99264.83;106333;1276;109426;-73
2022/02/20 07:48:57;;;;;;;13.20;6.20;;;;;;;3.55;55.79;99264.38;107432;1276;108281;-74
2022/02/20 07:51:29;;;;;;;16.80;6.70;;;;;;;3.65;55.65;99263.67;107575;1276;96149;-75
2022/02/20 07:54:01;;;;;;;18.70;6.50;;;;;;;3.78;55.21;99262.91;107610;1276;96323;-74
2022/02/20 07:56:33;;;;;;;15.10;6.20;;;;;;;3.90;54.66;99265.55;106889;1276;112490;-74
2022/02/20 07:59:05;;;;;;;18.60;6.30;;;;;;;3.97;54.69;99258.38;106113;1276;108235;-73
2022/02/20 08:01:37;;;;;;;15.00;6.50;;;;;;;4.30;54.40;99252.30;106145;1276;109089;-74
2022/02/20 08:04:09;;;;;;;14.30;5.90;;;;;;;4.88;53.28;99247.32;106137;1276;97942;-74
2022/02/20 08:06:41;;;;;;;16.50;6.30;;;;;;;5.22;52.91;99245.92;106141;1276;97922;-74
2022/02/20 08:09:13;;;;;;;15.40;6.30;;;;;;;5.36;51.90;99243.81;106125;1276;112485;-74
2022/02/20 08:11:45;;;;;;;14.20;6.40;;;;;;;5.37;51.41;99230.50;106158;1276;109032;-74
2022/02/20 08:14:17;;;;;;;14.70;6.60;;;;;;;5.31;51.52;99232.91;106022;1276;108157;-74
2022/02/20 08:16:49;;;;;;;13.90;5.70;;;;;;;5.35;51.29;99230.55;106044;1276;97835;-74
2022/02/20 08:19:21;;;;;;;12.60;5.00;;;;;;;5.84;51.37;99221.27;105816;1276;97773;-74
2022/02/20 08:21:53;;;;;;;14.20;5.20;;;;;;;6.57;50.22;99215.58;106024;1276;112440;-75
2022/02/20 08:24:24;;;;;;;13.60;5.40;;;;;;;7.33;50.38;99210.39;106024;1276;107802;-74
2022/02/20 08:26:56;;;;;;;15.00;5.70;;;;;;;8.03;49.17;99208.70;105982;1276;106417;-73
2022/02/20 08:29:29;;;;;;;14.80;5.70;;;;;;;8.36;48.45;99200.98;105942;1276;97810;-74
2022/02/20 08:32:02;;;;;;;13.80;5.50;;;;;;;8.44;48.23;99195.33;106038;1276;97846;-74
2022/02/20 08:34:34;;;;;;;16.50;6.10;;;;;;;8.54;48.11;99197.00;105919;1276;112099;-75
2022/02/20 08:37:07;;;;;;;18.50;7.00;;;;;;;8.83;47.91;99196.14;105958;1276;109040;-74
2022/02/20 08:39:39;;;;;;;13.90;6.10;;;;;;;9.06;46.87;99189.80;105714;1276;138358;-75
2022/02/20 08:42:11;;;;;;;15.60;5.90;;;;;;;9.15;46.86;99192.17;105564;1276;97836;-74
2022/02/20 08:44:43;;;;;;;14.80;5.80;;;;;;;9.37;45.91;99194.33;105816;1274;97931;-74
2022/02/20 08:47:15;;;;;;;11.20;5.70;;;;;;;9.47;45.87;99192.02;105920;1276;137611;-77
2022/02/20 08:49:47;;;;;;;11.00;5.30;;;;;;;9.61;45.51;99195.35;105974;1276;109508;-73
2022/02/20 08:52:19;;;;;;;12.10;5.50;;;;;;;9.88;46.48;99186.67;106400;1276;137764;-72
2022/02/20 08:54:51;;;;;;;13.10;5.20;;;;;;;10.51;45.91;99186.80;106735;1276;97854;-68
2022/02/20 08:57:23;;;;;;;13.30;5.10;;;;;;;10.97;44.73;99181.23;105858;1275;138097;-65
2022/02/20 08:59:57;;;;;;;12.30;5.60;;;;;;;11.02;44.98;99175.06;105997;1276;111492;-63
2022/02/20 09:02:29;;;;;;;10.40;5.30;;;;;;;10.93;44.23;99175.34;106048;1276;107284;-63
2022/02/20 09:05:01;;;;;;;11.40;5.20;;;;;;;10.66;44.50;99173.55;105848;1276;138022;-63
2022/02/20 09:07:33;;;;;;;14.20;5.50;;;;;;;10.37;43.58;99172.40;107509;1276;96065;-68
2022/02/20 09:10:08;;;;;;;11.80;5.20;;;;;;;9.90;43.79;99169.89;107411;1276;138105;-70
2022/02/20 09:12:41;;;;;;;10.90;4.70;;;;;;;9.53;44.03;99175.74;107522;1276;112712;-68
2022/02/20 09:15:14;;;;;;;14.40;5.30;;;;;;;9.19;44.39;99173.98;107531;1275;108068;-70
2022/02/20 09:17:46;;;;;;;12.30;5.40;;;;;;;8.90;44.34;99175.92;107351;1275;137956;-68
2022/02/20 09:20:18;;;;;;;11.40;4.70;;;;;;;8.56;44.53;99176.12;107460;1276;96054;-74
2022/02/20 09:22:50;;;;;;;12.50;5.10;;;;;;;8.26;44.71;99165.02;107427;1276;136200;-71
2022/02/20 09:25:22;;;;;;;17.00;5.60;;;;;;;8.07;45.29;99163.52;107473;1276;111422;-72
2022/02/20 09:27:54;;;;;;;11.60;4.80;;;;;;;7.90;45.03;99159.85;107330;1276;137795;-72
2022/02/20 09:30:26;;;;;;;12.80;5.10;;;;;;;7.68;44.71;99161.74;106080;1276;107882;-72
2022/02/20 09:32:58;;;;;;;11.20;5.00;;;;;;;7.77;45.30;99160.67;105917;1276;97822;-72
2022/02/20 09:35:30;;;;;;;12.60;4.80;;;;;;;8.24;45.10;99157.33;105752;1276;137383;-71
2022/02/20 09:38:03;;;;;;;10.50;4.80;;;;;;;8.23;44.81;99154.56;105891;1276;112500;-72
2022/02/20 09:40:36;;;;;;;12.20;5.20;;;;;;;8.05;45.36;99160.30;105798;1276;137793;-70
2022/02/20 09:43:08;;;;;;;12.70;4.10;;;;;;;7.92;45.65;99162.70;105857;1276;108886;-71
2022/02/20 09:45:45;;;;;;;9.70;4.40;;;;;;;7.70;45.92;99167.36;105703;1276;138203;-71
2022/02/20 09:48:18;;;;;;;10.70;4.80;;;;;;;7.44;46.43;99176.46;105868;1276;97830;-72
2022/02/20 09:50:49;;;;;;;9.10;4.20;;;;;;;7.18;46.84;99179.30;105881;1276;111535;-72
2022/02/20 09:53:22;;;;;;;10.00;3.90;;;;;;;6.87;47.40;99180.35;105720;1276;137842;-71
2022/02/20 09:55:57;;;;;;;10.70;4.70;;;;;;;6.64;48.36;99181.67;105814;1274;107789;-72
2022/02/20 09:58:29;;;;;;;10.70;5.20;;;;;;;6.51;48.98;99175.02;105712;1275;137550;-71
2022/02/20 10:01:07;;;;;;;11.30;4.90;;;;;;;6.30;49.22;99177.08;105822;1275;97849;-71
2022/02/20 10:03:40;;;;;;;11.10;4.70;;;;;;;6.14;50.16;99177.43;105771;1275;138344;-72
2022/02/20 10:06:14;;;;;;;13.30;4.80;;;;;;;6.05;50.47;99179.40;105905;1276;108904;-70
2022/02/20 10:08:48;;;;;;;11.40;4.50;;;;;;;5.95;50.91;99182.85;106006;1274;108711;-72
2022/02/20 10:11:22;;;;;;;11.10;5.00;;;;;;;5.86;51.39;99183.77;105721;1276;137648;-71
2022/02/20 10:13:56;;;;;;;9.00;4.00;;;;;;;5.75;51.69;99187.02;105880;1276;97851;-71
2022/02/20 10:16:29;;;;;;;10.40;4.20;;;;;;;5.67;52.26;99183.11;105882;1274;137267;-71
2022/02/20 10:19:05;;;;;;;9.40;4.40;;;;;;;5.63;52.69;99179.10;105916;1274;107725;-71
2022/02/20 10:21:56;;;;;;;9.10;4.00;;;;;;;5.60;52.91;99177.30;105797;1275;137574;-71
2022/02/20 10:25:03;;;;;;;8.40;3.90;;;;;;;5.55;53.22;99179.66;105493;1276;97858;-71
2022/02/20 10:27:55;;;;;;;6.40;3.70;;;;;;;5.49;53.60;99179.34;105818;1276;137390;-70
2022/02/20 10:30:33;;;;;;;9.80;4.10;;;;;;;5.42;53.71;99172.98;105805;1276;110431;-71
2022/02/20 10:33:11;;;;;;;11.80;4.40;;;;;;;5.37;53.94;99168.12;106004;1275;108848;-71
2022/02/20 10:35:45;;;;;;;9.10;4.00;;;;;;;5.34;54.38;99171.30;105713;1275;137404;-70
2022/02/20 10:38:19;;;;;;;9.80;3.90;;;;;;;5.27;54.73;99174.77;107449;1274;96206;-76
2022/02/20 10:40:53;;;;;;;12.00;4.30;;;;;;;5.20;55.14;99171.02;107400;1275;138252;-67
2022/02/20 10:43:31;;;;;;;10.20;4.10;;;;;;;5.11;55.34;99177.45;107474;1276;111273;-69
2022/02/20 10:46:11;;;;;;;8.90;4.10;;;;;;;5.08;55.91;99171.86;107368;1275;139875;-67
2022/02/20 10:48:45;;;;;;;8.30;3.90;;;;;;;5.04;56.04;99175.41;107461;1275;106336;-68
2022/02/20 10:51:19;;;;;;;11.80;4.30;;;;;;;4.99;56.64;99174.17;107443;1275;96400;-68
2022/02/20 10:53:52;;;;;;;8.80;4.20;;;;;;;4.94;56.99;99178.10;107401;1276;138568;-69
2022/02/20 10:56:40;;;;;;;8.70;4.00;;;;;;;4.88;57.54;99173.77;107169;1275;111483;-68
2022/02/20 10:59:12;;;;;;;8.80;3.80;;;;;;;4.83;57.73;99172.50;105721;1276;137429;-69
2022/02/20 11:01:44;;;;;;;6.90;4.10;;;;;;;4.80;58.27;99174.99;105808;1275;109050;-73
2022/02/20 11:04:16;;;;;;;9.10;4.10;;;;;;;4.81;59.44;99179.79;105676;1275;138182;-75
2022/02/20 11:06:48;;;;;;;6.30;3.40;;;;;;;4.79;59.93;99177.77;105845;1276;97684;-70
2022/02/20 11:09:20;;;;;;;6.90;3.50;;;;;;;4.87;61.27;99174.66;105888;1276;112693;-67
2022/02/20 11:11:54;;;;;;;7.00;3.00;;;;;;;4.98;61.86;99177.28;105658;1275;137873;-68
2022/02/20 11:14:27;;;;;;;7.00;3.20;;;;;;;5.09;62.47;99182.16;107474;1275;108976;-69
2022/02/20 11:17:03;;;;;;;5.80;3.40;;;;;;;5.12;62.36;99180.72;107392;1274;138006;-68
2022/02/20 11:19:39;;;;;;;5.90;3.20;;;;;;;5.11;62.31;99182.27;107383;1275;96083;-68
2022/02/20 11:22:12;;;;;;;4.30;2.70;;;;;;;5.14;62.85;99183.23;105819;1276;139204;-68
2022/02/20 11:24:46;;;;;;;5.70;3.40;;;;;;;5.10;62.99;99181.80;105918;1275;109002;-66
2022/02/20 11:27:19;;;;;;;6.10;3.00;;;;;;;5.07;63.69;99185.67;105733;1274;109609;-72
2022/02/20 11:29:56;;;;;;;8.70;3.10;;;;;;;5.00;63.33;99183.10;105677;1276;137177;-69
2022/02/20 11:32:29;;;;;;;4.50;2.80;;;;;;;4.84;63.47;99190.23;105814;1275;97711;-70
2022/02/20 11:35:01;;;;;;;4.70;2.80;;;;;;;4.67;64.14;99188.08;105701;1274;139838;-70
2022/02/20 11:37:48;;;;;;;5.00;2.60;;;;;;;4.53;64.46;99185.67;105875;1275;109204;-72
2022/02/20 11:40:21;;;;;;;4.50;2.60;;;;;;;4.41;64.92;99183.04;105800;1276;138084;-71
2022/02/20 11:43:10;;;;;;;4.40;2.70;;;;;;;4.32;65.27;99178.80;105927;1276;98504;-71
2022/02/20 11:46:04;;;;;;;4.70;2.70;;;;;;;4.28;65.97;99184.39;105835;1275;137684;-71
2022/02/20 11:48:37;;;;;;;6.10;2.80;;;;;;;4.20;66.44;99186.81;105926;1275;111474;-69
2022/02/20 11:51:18;;;;;;;3.30;2.80;;;;;;;4.11;66.57;99187.35;105899;1276;108868;-72
2022/02/20 11:54:10;;;;;;;5.20;3.50;;;;;;;4.05;66.81;99187.85;105783;1275;137940;-71
2022/02/20 11:56:42;;;;;;;6.90;3.50;;;;;;;3.98;67.12;99183.89;105879;1276;97834;-72
2022/02/20 11:59:18;;;;;;;5.90;3.40;;;;;;;3.94;67.60;99181.90;105577;1276;137917;-68
2022/02/20 12:02:12;;;;;;;6.10;3.30;;;;;;;3.98;67.95;99184.91;105888;1274;112555;-71